Time;durP1;ratioP1;P1;durP2;ratioP2;P2;SDS_P1;SDS_P2;PMS_P1;PMS_P2;Temp;Humidity;BMP_temperature;BMP_pressure;BME280_temperature;BME280_humidity;BME280_pressure;Samples;Min_cycle;Max_cycle;Signal;HPM_P1;HPM_P2
2022/05/29 00:01:00;;;;;;;19.33;1.67;;;;;;;24.19;43.69;99204.09;7312528;19;154602;-39
2022/05/29 00:03:25;;;;;;;19.75;1.60;;;;;;;24.16;43.33;99209.66;7309861;19;153898;-41
2022/05/29 00:05:51;;;;;;;31.03;2.80;;;;;;;24.16;42.94;99214.91;7312093;19;159538;-37
2022/05/29 00:08:38;;;;;;;17.03;1.37;;;;;;;24.16;43.08;99209.66;7312035;19;130905;-38
2022/05/29 00:11:05;;;;;;;24.25;1.95;;;;;;;24.18;43.64;99204.28;7313251;19;129174;-42
2022/05/29 00:13:30;;;;;;;15.95;1.63;;;;;;;24.17;43.32;99206.06;7311479;19;130618;-36
2022/05/29 00:15:56;;;;;;;28.67;2.55;;;;;;;24.17;43.39;99205.22;7310917;19;156947;-41
2022/05/29 00:18:21;;;;;;;7.35;0.73;;;;;;;24.20;43.38;99195.22;7311268;19;130449;-37
2022/05/29 00:20:51;;;;;;;16.67;1.27;;;;;;;24.15;43.22;99202.78;7311582;19;148783;-41
2022/05/29 00:23:16;;;;;;;16.20;1.23;;;;;;;24.17;43.40;99198.19;7311877;19;129024;-41
2022/05/29 00:25:45;;;;;;;37.92;3.45;;;;;;;24.20;42.82;99204.91;7311524;19;129095;-36
2022/05/29 00:28:10;;;;;;;18.58;1.40;;;;;;;24.17;43.56;99199.97;7311595;19;129799;-41
2022/05/29 00:30:35;;;;;;;28.58;2.42;;;;;;;24.15;43.61;99194.91;7312744;19;129024;-39
2022/05/29 00:33:01;;;;;;;37.60;3.60;;;;;;;24.18;43.29;99202.44;7309057;19;130193;-40
2022/05/29 00:35:27;;;;;;;9.93;1.20;;;;;;;24.19;43.35;99198.84;7309802;19;152798;-40
2022/05/29 00:37:52;;;;;;;18.10;1.63;;;;;;;24.19;43.01;99193.59;7310402;19;129315;-40
2022/05/29 00:40:41;;;;;;;18.65;1.35;;;;;;;24.17;43.31;99198.19;7309502;19;141831;-40
2022/05/29 00:43:06;;;;;;;12.75;1.38;;;;;;;24.19;43.29;99198.84;7310765;19;130197;-42
2022/05/29 00:45:37;;;;;;;24.08;2.08;;;;;;;24.19;43.40;99192.75;7309986;19;158209;-38
2022/05/29 00:48:04;;;;;;;23.55;2.10;;;;;;;24.20;43.45;99189.13;7310897;19;129676;-41
2022/05/29 00:50:30;;;;;;;15.88;1.42;;;;;;;24.18;43.09;99191.94;7310036;19;129150;-40
2022/05/29 00:52:55;;;;;;;38.83;3.33;;;;;;;24.22;42.75;99182.75;7311514;19;128995;-40
2022/05/29 00:55:27;;;;;;;17.60;1.52;;;;;;;24.18;43.12;99178.78;7318108;19;130109;-41
2022/05/29 00:57:59;;;;;;;37.53;3.45;;;;;;;24.17;43.08;99185.06;7317211;19;129608;-41
2022/05/29 01:00:27;;;;;;;17.42;1.52;;;;;;;24.20;43.06;99178.63;7315553;19;129380;-43
2022/05/29 01:02:54;;;;;;;26.08;2.35;;;;;;;24.20;43.47;99171.56;7317502;19;129152;-43
2022/05/29 01:05:22;;;;;;;9.52;1.13;;;;;;;24.18;43.41;99164.88;7318034;19;128986;-40
2022/05/29 01:07:53;;;;;;;14.27;1.15;;;;;;;24.20;43.40;99168.94;7318349;19;129782;-41
2022/05/29 01:10:19;;;;;;;18.95;1.52;;;;;;;24.19;43.49;99161.25;7316357;19;128897;-42
2022/05/29 01:13:13;;;;;;;21.85;1.88;;;;;;;24.18;42.98;99165.66;7318196;19;129598;-40
2022/05/29 01:16:06;;;;;;;32.42;2.88;;;;;;;24.21;43.44;99162.69;7316893;19;129674;-38
2022/05/29 01:18:51;;;;;;;21.65;1.80;;;;;;;24.20;43.50;99163.69;7317696;19;130813;-39
2022/05/29 01:21:36;;;;;;;18.27;1.60;;;;;;;24.20;43.20;99168.94;7317289;19;129513;-39
2022/05/29 01:24:20;;;;;;;19.38;1.58;;;;;;;24.19;43.17;99161.25;7317912;19;129176;-39
2022/05/29 01:27:01;;;;;;;13.93;1.10;;;;;;;24.14;42.85;99148.63;7316792;19;129576;-42
2022/05/29 01:30:01;;;;;;;21.73;1.90;;;;;;;24.18;43.15;99164.88;7316442;19;130429;-42
2022/05/29 01:32:37;;;;;;;13.23;1.42;;;;;;;24.18;42.77;99160.41;7317716;19;128918;-38
2022/05/29 01:35:10;;;;;;;18.80;1.65;;;;;;;24.17;43.07;99155.31;7317039;19;128973;-41
2022/05/29 01:37:51;;;;;;;24.00;2.10;;;;;;;24.19;42.92;99164.69;7316572;19;129652;-43
2022/05/29 01:40:53;;;;;;;14.65;1.17;;;;;;;24.18;42.70;99160.41;7314798;19;129529;-37
2022/05/29 01:43:48;;;;;;;15.45;1.15;;;;;;;24.19;43.20;99156.81;7314238;19;129703;-39
2022/05/29 01:46:23;;;;;;;15.70;1.25;;;;;;;24.21;43.19;99161.91;7317131;19;129242;-41
2022/05/29 01:48:58;;;;;;;14.07;1.15;;;;;;;24.21;42.90;99160.06;7316758;19;129345;-42
2022/05/29 01:51:26;;;;;;;17.27;1.42;;;;;;;24.22;43.21;99155.66;7317560;19;129253;-41
2022/05/29 01:53:59;;;;;;;13.68;1.17;;;;;;;24.19;43.12;99156.81;7315684;19;129681;-38
2022/05/29 01:56:31;;;;;;;16.02;1.42;;;;;;;24.19;43.13;99151.56;7317212;19;130067;-43
2022/05/29 01:59:03;;;;;;;21.80;1.98;;;;;;;24.22;43.27;99159.09;7315403;19;129320;-39
2022/05/29 02:01:34;;;;;;;18.27;1.50;;;;;;;24.14;43.17;99138.09;7316895;19;129381;-39
2022/05/29 02:04:05;;;;;;;21.98;1.90;;;;;;;24.19;43.08;99154.19;7316930;19;129238;-42
2022/05/29 02:09:29;;;;;;;17.17;1.58;;;;;;;24.20;43.25;99152.34;7315075;19;129397;-39
2022/05/29 02:11:59;;;;;;;13.63;1.15;;;;;;;24.20;42.90;99145.31;7315805;19;129915;-40
2022/05/29 02:14:32;;;;;;;12.25;1.05;;;;;;;24.17;43.54;99148.28;7316703;19;129360;-38
2022/05/29 02:17:03;;;;;;;22.52;1.80;;;;;;;24.20;43.00;99141.84;7316974;19;129678;-41
2022/05/29 02:19:33;;;;;;;18.10;1.50;;;;;;;24.20;43.15;99147.94;7314397;19;129166;-41
2022/05/29 02:22:03;;;;;;;25.08;2.15;;;;;;;24.20;43.36;99142.69;7315496;19;129555;-38
2022/05/29 02:24:36;;;;;;;23.23;2.05;;;;;;;24.20;42.83;99137.44;7316252;19;129496;-41
2022/05/29 02:27:11;;;;;;;31.92;2.63;;;;;;;24.34;44.00;99139.38;7315651;19;128846;-40
2022/05/29 02:29:36;;;;;;;11.63;1.10;;;;;;;24.32;44.47;99141.34;7314139;19;129509;-42
2022/05/29 02:32:56;;;;;;;22.17;2.10;;;;;;;24.32;45.95;99141.34;7315242;19;129049;-39
2022/05/29 02:35:52;;;;;;;5.68;0.63;;;;;;;24.30;46.46;99135.44;7312427;19;128907;-37
2022/05/29 02:38:28;;;;;;;24.13;1.83;;;;;;;24.29;47.11;99136.44;7315442;19;128986;-40
2022/05/29 02:41:15;;;;;;;27.97;2.40;;;;;;;24.27;47.18;99143.66;7313656;19;129151;-38
2022/05/29 02:43:53;;;;;;;25.30;1.92;;;;;;;24.29;47.82;99136.44;7315587;19;130413;-43
2022/05/29 02:46:27;;;;;;;0.10;0.10;;;;;;;24.28;47.70;99134.78;7315005;19;129956;-42
2022/05/29 02:48:58;;;;;;;18.02;1.70;;;;;;;24.27;48.19;99127.91;7314393;19;129255;-41
2022/05/29 02:51:46;;;;;;;17.10;1.40;;;;;;;24.27;48.01;99122.66;7315229;19;129733;-39
2022/05/29 02:54:13;;;;;;;14.43;1.27;;;;;;;23.95;44.37;99122.66;7314707;19;130933;-40
2022/05/29 02:56:40;;;;;;;14.00;1.20;;;;;;;23.97;44.13;99117.25;7314454;19;128828;-41
2022/05/29 02:59:05;;;;;;;21.17;1.77;;;;;;;24.02;44.44;99118.41;7314567;19;129214;-42
2022/05/29 03:01:44;;;;;;;24.08;2.30;;;;;;;23.97;43.64;99099.69;7314499;19;130701;-42
2022/05/29 03:04:55;;;;;;;21.20;1.92;;;;;;;24.06;43.84;99111.03;7314175;19;130577;-42
2022/05/29 03:07:58;;;;;;;25.08;1.90;;;;;;;24.07;43.45;99110.03;7307055;19;129275;-43
2022/05/29 03:10:27;;;;;;;18.33;1.50;;;;;;;24.09;43.89;99108.91;7311690;19;128973;-36
2022/05/29 03:13:13;;;;;;;16.77;1.35;;;;;;;24.11;44.10;99106.91;7312975;19;129414;-38
2022/05/29 03:15:59;;;;;;;32.03;2.85;;;;;;;24.09;43.58;99111.53;7314276;19;129287;-38
2022/05/29 03:18:40;;;;;;;9.57;0.85;;;;;;;24.11;43.58;99119.22;7312021;19;128933;-42
2022/05/29 03:21:24;;;;;;;21.20;1.90;;;;;;;24.10;43.23;99110.53;7311960;19;128915;-40
2022/05/29 03:23:54;;;;;;;25.63;2.08;;;;;;;24.11;43.67;99116.59;7312366;19;130354;-43
2022/05/29 03:26:40;;;;;;;16.88;1.55;;;;;;;24.12;43.45;99116.44;7311439;19;158698;-40
2022/05/29 03:29:09;;;;;;;55.88;4.32;;;;;;;24.01;43.34;99105.47;7309642;19;154619;-42
2022/05/29 03:31:37;;;;;;;17.83;1.48;;;;;;;24.10;43.28;99117.56;7313428;19;128822;-42
2022/05/29 03:34:03;;;;;;;25.20;2.22;;;;;;;24.10;43.78;99114.94;7312766;19;130107;-41
2022/05/29 03:36:29;;;;;;;22.15;1.80;;;;;;;24.10;43.23;99118.41;7312830;19;129469;-42
2022/05/29 03:38:55;;;;;;;20.27;1.80;;;;;;;24.12;43.34;99113.81;7312561;19;129437;-39
2022/05/29 03:41:32;;;;;;;18.00;1.63;;;;;;;24.12;43.70;99123.50;7314677;19;129286;-40
2022/05/29 03:43:58;;;;;;;18.00;1.52;;;;;;;24.10;43.50;99123.66;7313679;19;129253;-42
2022/05/29 03:46:23;;;;;;;11.53;1.13;;;;;;;24.14;43.16;99124.16;7312612;19;159367;-43
2022/05/29 03:48:48;;;;;;;27.67;2.30;;;;;;;24.08;43.38;99112.50;7311769;19;154544;-39
2022/05/29 03:51:13;;;;;;;25.07;2.13;;;;;;;24.13;43.76;99120.69;7311607;19;154495;-38
2022/05/29 03:53:39;;;;;;;14.80;1.15;;;;;;;24.16;43.72;99122.19;7313105;19;129527;-39
2022/05/29 03:56:04;;;;;;;18.58;1.60;;;;;;;24.14;43.50;99119.72;7311525;19;158702;-38
2022/05/29 03:58:30;;;;;;;20.13;1.75;;;;;;;24.04;43.61;99105.94;7312846;19;128949;-36
2022/05/29 04:00:55;;;;;;;18.17;1.53;;;;;;;24.16;43.57;99111.66;7312242;19;129277;-38
2022/05/29 04:03:20;;;;;;;14.80;1.50;;;;;;;24.14;43.70;99117.09;7310333;19;159156;-36
2022/05/29 04:05:46;;;;;;;30.07;2.67;;;;;;;24.15;43.71;99113.47;7312551;19;129338;-44
2022/05/29 04:13:42;;;;;;;15.40;1.25;;;;;;;24.15;43.71;99121.34;7313358;19;129849;-39
2022/05/29 04:16:07;;;;;;;17.60;1.58;;;;;;;24.15;43.37;99123.97;7312417;19;132041;-43
2022/05/29 04:18:33;;;;;;;23.50;1.97;;;;;;;24.15;43.63;99123.97;7310988;19;151011;-42
2022/05/29 04:20:58;;;;;;;8.93;0.93;;;;;;;24.06;43.05;99109.25;7309348;19;154321;-39
2022/05/29 04:23:23;;;;;;;16.33;1.70;;;;;;;24.15;43.27;99123.16;7312475;19;129618;-42
2022/05/29 04:25:49;;;;;;;29.73;2.60;;;;;;;24.15;42.96;99121.34;7312762;19;130071;-41
2022/05/29 04:28:15;;;;;;;16.38;1.27;;;;;;;24.12;43.34;99124.31;7313360;19;128978;-43
2022/05/29 04:30:40;;;;;;;17.17;1.30;;;;;;;24.14;42.91;99119.72;7319227;19;128897;-41
2022/05/29 04:33:06;;;;;;;20.70;1.90;;;;;;;24.13;43.57;99119.88;7316923;19;158339;-40
2022/05/29 04:35:38;;;;;;;27.15;2.50;;;;;;;24.14;43.49;99114.47;7318555;19;129800;-42
2022/05/29 04:38:03;;;;;;;7.00;0.68;;;;;;;24.15;43.58;99115.28;7319750;19;128925;-38
2022/05/29 04:40:30;;;;;;;36.47;3.17;;;;;;;24.14;43.67;99117.09;7314774;19;128967;-38
2022/05/29 04:42:55;;;;;;;9.38;0.90;;;;;;;24.16;43.35;99114.31;7317986;19;129934;-39
2022/05/29 04:45:20;;;;;;;21.27;1.93;;;;;;;24.15;43.50;99110.84;7319335;19;129693;-40
2022/05/29 04:47:46;;;;;;;14.27;1.15;;;;;;;24.14;43.25;99111.00;7317125;19;154513;-43
2022/05/29 04:50:11;;;;;;;13.90;1.03;;;;;;;24.12;43.08;99103.31;7316491;19;129962;-41
2022/05/29 04:52:37;;;;;;;29.30;2.70;;;;;;;24.15;43.67;99108.22;7318137;19;129510;-38
2022/05/29 04:55:03;;;;;;;16.40;1.40;;;;;;;24.15;43.42;99112.63;7317307;19;156795;-36
2022/05/29 04:57:29;;;;;;;;;;;;;;;24.12;43.19;99103.31;7318541;19;129490;-40
2022/05/29 04:59:55;;;;;;;16.15;1.40;;;;;;;24.13;43.56;99104.94;7317431;19;129492;-43
2022/05/29 05:02:20;;;;;;;22.70;1.97;;;;;;;24.15;43.39;99107.38;7317286;19;129158;-41
2022/05/29 05:04:45;;;;;;;14.57;1.15;;;;;;;24.07;43.25;99095.09;7318109;19;129677;-38
2022/05/29 05:07:10;;;;;;;2.70;0.27;;;;;;;24.13;43.31;99104.94;7316774;19;154292;-39
2022/05/29 05:09:36;;;;;;;18.57;1.50;;;;;;;24.12;43.69;99111.19;7315151;19;154323;-36
2022/05/29 05:12:01;;;;;;;17.65;1.45;;;;;;;24.12;43.21;99108.56;7318917;19;129264;-40
2022/05/29 05:14:27;;;;;;;16.37;1.47;;;;;;;24.15;43.63;99108.22;7317024;19;129805;-37
2022/05/29 05:16:53;;;;;;;21.08;1.77;;;;;;;24.14;43.04;99103.97;7317608;19;129037;-40
2022/05/29 05:19:19;;;;;;;18.53;1.47;;;;;;;24.13;42.97;99101.50;7315984;19;144650;-42
2022/05/29 05:21:45;;;;;;;19.77;1.63;;;;;;;24.15;43.19;99102.13;7318163;19;129172;-39
2022/05/29 05:24:11;;;;;;;5.37;0.50;;;;;;;24.15;43.14;99095.09;7317098;19;151985;-40
2022/05/29 05:26:36;;;;;;;16.90;1.47;;;;;;;24.14;43.10;99095.25;7317283;19;128829;-41
2022/05/29 05:29:02;;;;;;;9.90;1.05;;;;;;;24.09;42.90;99082.63;7316000;19;154216;-41
2022/05/29 05:31:27;;;;;;;29.60;2.70;;;;;;;24.16;42.91;99099.34;7317051;19;129138;-39
2022/05/29 05:33:52;;;;;;;23.63;1.95;;;;;;;24.15;42.99;99086.38;7316816;19;129221;-41
2022/05/29 05:36:18;;;;;;;15.68;1.17;;;;;;;24.16;43.35;99093.28;7314720;19;153749;-40
2022/05/29 05:38:44;;;;;;;16.50;1.52;;;;;;;24.15;42.72;99096.88;7316539;19;129393;-42
2022/05/29 05:41:11;;;;;;;15.18;1.13;;;;;;;24.15;42.86;99096.88;7314642;19;130495;-41
2022/05/29 05:43:36;;;;;;;;;;;;;;;24.13;43.47;99089.16;7316584;19;129709;-40
2022/05/29 05:46:06;;;;;;;22.20;1.97;;;;;;;24.13;42.78;99089.16;7314558;19;128913;-41
2022/05/29 05:48:31;;;;;;;19.83;1.75;;;;;;;24.15;43.47;99086.38;7316093;19;129036;-40
2022/05/29 05:50:57;;;;;;;32.38;3.10;;;;;;;24.14;43.40;99090.81;7314783;19;138991;-42
2022/05/29 05:53:24;;;;;;;4.60;0.55;;;;;;;24.16;44.13;99091.47;7315567;19;129370;-36
2022/05/29 05:55:50;;;;;;;22.00;1.88;;;;;;;24.31;44.40;99084.53;7316389;19;128753;-42
2022/05/29 05:58:15;;;;;;;21.13;1.60;;;;;;;24.29;44.27;99093.56;7316924;19;129012;-39
2022/05/29 06:00:43;;;;;;;19.60;1.63;;;;;;;24.24;45.43;99090.63;7313571;19;158613;-40
2022/05/29 06:03:08;;;;;;;27.60;2.03;;;;;;;24.24;46.75;99091.47;7315154;19;129418;-40
2022/05/29 06:05:34;;;;;;;22.77;2.00;;;;;;;24.21;46.69;99073.38;7315396;19;155196;-43
2022/05/29 06:07:59;;;;;;;21.90;1.95;;;;;;;24.24;47.22;99082.75;7315939;19;144017;-40
2022/05/29 06:10:24;;;;;;;18.27;1.55;;;;;;;24.22;46.83;99077.66;7313049;19;159251;-41
2022/05/29 06:12:50;;;;;;;14.27;1.23;;;;;;;24.23;47.50;99079.28;7314256;19;159050;-42
2022/05/29 06:15:15;;;;;;;4.23;0.50;;;;;;;24.21;47.02;99086.53;7315815;19;128827;-44
2022/05/29 06:17:40;;;;;;;13.40;1.10;;;;;;;24.24;47.96;99082.75;7316185;19;129225;-40
2022/05/29 06:20:07;;;;;;;12.77;1.17;;;;;;;23.96;44.40;99077.06;7312324;19;157278;-41
2022/05/29 06:22:35;;;;;;;13.20;1.15;;;;;;;23.89;44.83;99075.25;7315527;19;130593;-43
2022/05/29 06:25:01;;;;;;;23.85;2.13;;;;;;;23.87;44.13;99070.16;7317455;19;129087;-42
2022/05/29 06:27:28;;;;;;;16.53;1.47;;;;;;;23.97;43.88;99077.84;7315412;19;128847;-40
2022/05/29 06:29:53;;;;;;;16.40;1.42;;;;;;;24.00;43.90;99088.88;7314685;19;130342;-41
2022/05/29 06:32:19;;;;;;;32.73;2.83;;;;;;;24.03;43.71;99087.75;7315225;19;133244;-39
2022/05/29 06:34:44;;;;;;;14.88;1.17;;;;;;;24.03;43.36;99087.75;7317755;19;129728;-38
2022/05/29 06:37:09;;;;;;;20.07;1.87;;;;;;;24.02;43.69;99083.44;7314384;19;154387;-37
2022/05/29 06:39:36;;;;;;;23.45;2.17;;;;;;;24.00;43.30;99072.28;7313308;19;129459;-39
2022/05/29 06:42:01;;;;;;;37.03;3.00;;;;;;;24.05;44.14;99083.94;7315661;19;130258;-38
2022/05/29 06:44:27;;;;;;;17.93;1.80;;;;;;;24.02;43.50;99076.41;7314734;19;129374;-39
2022/05/29 06:46:53;;;;;;;24.63;2.03;;;;;;;24.06;43.53;99079.53;7313960;19;154289;-40
2022/05/29 06:49:18;;;;;;;15.10;1.30;;;;;;;24.07;43.37;99089.84;7313873;19;128992;-38
2022/05/29 06:51:43;;;;;;;14.43;1.20;;;;;;;24.05;43.47;99085.75;7314296;19;129767;-43
2022/05/29 06:54:08;;;;;;;19.63;1.67;;;;;;;23.96;43.16;99077.06;7314015;19;153326;-41
2022/05/29 06:56:34;;;;;;;20.10;1.80;;;;;;;24.06;43.50;99090.84;7313953;19;154733;-41
2022/05/29 06:58:59;;;;;;;14.38;1.45;;;;;;;24.04;43.06;99092.81;7313433;19;129389;-42
2022/05/29 07:07:00;;;;;;;11.00;1.02;;;;;;;24.07;43.84;99089.84;7315453;19;129041;-41
2022/05/29 07:09:34;;;;;;;43.75;3.60;;;;;;;24.05;43.05;99086.56;7312763;19;130373;-38
2022/05/29 07:12:11;;;;;;;6.30;0.68;;;;;;;24.00;43.65;99082.78;7314616;19;129288;-39
2022/05/29 07:14:43;;;;;;;15.23;1.48;;;;;;;24.05;43.71;99089.19;7315278;19;129046;-42
2022/05/29 07:17:11;;;;;;;16.38;1.38;;;;;;;24.08;43.53;99085.44;7313835;19;129903;-41
2022/05/29 07:19:36;;;;;;;21.23;1.92;;;;;;;24.08;43.28;99094.09;7312629;19;130162;-42
2022/05/29 07:22:01;;;;;;;19.23;1.65;;;;;;;24.08;43.31;99088.84;7315308;19;129683;-43
2022/05/29 07:24:28;;;;;;;22.47;1.93;;;;;;;24.07;43.37;99092.47;7314224;19;128751;-38
2022/05/29 07:26:54;;;;;;;17.02;1.42;;;;;;;24.08;42.85;99088.06;7313909;19;129262;-37
2022/05/29 07:29:21;;;;;;;18.10;1.88;;;;;;;24.09;44.07;99082.63;7313574;19;129301;-40
2022/05/29 07:31:46;;;;;;;16.20;1.33;;;;;;;24.24;44.06;99090.63;7314558;19;129645;-40
2022/05/29 07:34:12;;;;;;;16.75;1.45;;;;;;;24.19;45.09;99091.16;7315417;19;129364;-40
2022/05/29 07:36:38;;;;;;;16.60;1.33;;;;;;;24.18;45.17;99089.50;7313849;19;128931;-41
2022/05/29 07:39:03;;;;;;;15.37;1.33;;;;;;;24.17;46.12;99090.50;7313858;19;129509;-38
2022/05/29 07:44:12;;;;;;;15.93;1.35;;;;;;;24.14;47.02;99082.13;7313953;19;129339;-43
2022/05/29 07:46:38;;;;;;;23.30;2.10;;;;;;;24.18;47.20;99083.44;7311711;19;154767;-41
2022/05/29 07:49:03;;;;;;;16.65;1.45;;;;;;;24.17;47.27;99085.22;7312638;19;132448;-42
2022/05/29 07:51:29;;;;;;;23.17;2.00;;;;;;;24.17;47.82;99077.34;7314238;19;130303;-40
2022/05/29 07:53:55;;;;;;;6.35;0.73;;;;;;;24.18;47.76;99081.59;7312716;19;128881;-42
2022/05/29 07:56:20;;;;;;;15.63;1.20;;;;;;;24.09;46.04;99087.88;7312322;19;129021;-41
2022/05/29 07:58:46;;;;;;;14.10;1.23;;;;;;;23.88;44.24;99077.03;7312713;19;129132;-42
2022/05/29 08:01:11;;;;;;;6.13;0.63;;;;;;;23.89;44.37;99076.06;7309496;19;129946;-40
2022/05/29 08:03:37;;;;;;;20.13;1.77;;;;;;;23.92;44.92;99081.00;7308344;19;155428;-41
2022/05/29 08:06:03;;;;;;;22.27;1.85;;;;;;;23.89;44.22;99081.31;7312504;19;129545;-40
2022/05/29 08:08:29;;;;;;;6.75;0.75;;;;;;;23.93;43.78;99085.25;7311632;19;158346;-41
2022/05/29 08:10:55;;;;;;;28.25;2.47;;;;;;;23.91;44.17;99081.16;7312371;19;129391;-41
2022/05/29 08:13:21;;;;;;;12.80;1.07;;;;;;;23.96;43.72;99079.69;7313564;19;128873;-36
2022/05/29 08:15:46;;;;;;;37.47;3.45;;;;;;;23.94;44.13;99079.03;7312648;19;129622;-38
2022/05/29 08:18:11;;;;;;;14.33;1.13;;;;;;;23.98;43.90;99077.72;7311899;19;157425;-40
2022/05/29 08:20:37;;;;;;;8.82;0.82;;;;;;;23.97;43.88;99083.09;7312755;19;130890;-39
2022/05/29 08:23:07;;;;;;;25.90;2.27;;;;;;;23.97;43.39;99083.94;7312914;19;130177;-36
2022/05/29 08:31:00;;;;;;;19.33;1.73;;;;;;;23.97;43.43;99083.94;7312398;19;129095;-42
2022/05/29 08:33:29;;;;;;;19.48;1.67;;;;;;;23.98;43.36;99080.34;7311259;19;147416;-37
2022/05/29 08:36:06;;;;;;;22.90;2.00;;;;;;;23.99;43.35;99074.13;7312534;19;128975;-39
2022/05/29 08:38:34;;;;;;;18.15;1.63;;;;;;;23.89;43.69;99062.94;7312206;19;129256;-40
2022/05/29 08:41:04;;;;;;;21.35;1.95;;;;;;;23.93;43.51;99061.59;7310968;19;129504;-37
2022/05/29 08:43:38;;;;;;;31.52;2.60;;;;;;;24.02;43.10;99081.66;7312253;19;129492;-38
2022/05/29 08:46:09;;;;;;;18.23;1.50;;;;;;;24.01;43.26;99079.19;7310591;19;128659;-42
2022/05/29 08:48:35;;;;;;;22.98;1.95;;;;;;;24.01;43.81;99066.06;7311819;19;129678;-42
2022/05/29 08:51:12;;;;;;;22.13;2.03;;;;;;;24.01;43.15;99069.53;7311526;19;129415;-42
2022/05/29 08:53:53;;;;;;;18.58;1.55;;;;;;;24.01;43.27;99068.69;7311942;19;129706;-44
2022/05/29 08:56:27;;;;;;;14.43;1.05;;;;;;;23.99;43.78;99066.25;7311603;19;128857;-36
2022/05/29 08:59:21;;;;;;;15.93;1.30;;;;;;;23.99;42.99;99066.25;7311369;19;130369;-39
2022/05/29 09:02:01;;;;;;;24.98;2.22;;;;;;;24.16;44.19;99061.75;7308647;19;129496;-42
2022/05/29 09:04:40;;;;;;;20.02;1.67;;;;;;;24.12;45.95;99063.91;7312340;19;129044;-39
2022/05/29 09:07:09;;;;;;;17.35;1.48;;;;;;;24.13;45.37;99062.09;7309239;19;128651;-42
2022/05/29 09:09:39;;;;;;;18.13;1.52;;;;;;;24.11;46.80;99054.38;7310276;19;129533;-42
2022/05/29 09:12:17;;;;;;;32.53;2.92;;;;;;;24.10;47.08;99058.00;7309377;19;129658;-39
2022/05/29 09:14:58;;;;;;;5.82;0.60;;;;;;;24.10;47.16;99055.38;7312257;19;129004;-37
2022/05/29 09:17:38;;;;;;;18.27;1.55;;;;;;;24.11;48.16;99054.38;7316545;19;129102;-40
2022/05/29 09:20:26;;;;;;;26.40;2.33;;;;;;;24.11;48.40;99054.38;7315983;19;129170;-41
2022/05/29 09:22:54;;;;;;;4.65;0.50;;;;;;;24.11;47.04;99043.06;7317087;19;129198;-37
2022/05/29 09:25:25;;;;;;;17.20;1.48;;;;;;;24.10;48.21;99046.66;7318375;19;129526;-42
2022/05/29 09:27:51;;;;;;;28.73;2.38;;;;;;;23.82;44.41;99038.34;7317095;19;128858;-43
2022/05/29 09:30:17;;;;;;;20.35;1.73;;;;;;;23.72;45.07;99040.31;7315322;19;130218;-42
2022/05/29 09:32:58;;;;;;;19.50;1.65;;;;;;;23.83;43.92;99045.22;7317737;19;130127;-37
2022/05/29 09:35:40;;;;;;;23.27;2.03;;;;;;;23.87;43.83;99040.47;7317331;19;128884;-41
2022/05/29 09:38:24;;;;;;;20.05;1.63;;;;;;;23.90;44.39;99040.94;7318292;19;129931;-36
2022/05/29 09:40:56;;;;;;;14.20;1.17;;;;;;;23.92;44.20;99038.16;7317061;19;129885;-38
2022/05/29 09:43:24;;;;;;;14.68;1.55;;;;;;;23.93;43.64;99027.47;7316757;19;129270;-43
2022/05/29 09:45:50;;;;;;;35.55;2.90;;;;;;;23.84;43.65;99007.50;7316962;19;129329;-41
2022/05/29 09:51:25;;;;;;;22.58;1.90;;;;;;;23.91;44.07;99013.72;7317239;19;129007;-39
2022/05/29 09:53:56;;;;;;;29.02;2.45;;;;;;;23.93;44.01;99018.81;7316624;19;129407;-41
2022/05/29 09:56:31;;;;;;;13.98;1.10;;;;;;;23.95;43.94;99011.56;7316842;19;128791;-39
2022/05/29 09:59:04;;;;;;;16.88;1.40;;;;;;;23.94;43.32;99010.75;7316353;19;128873;-39
2022/05/29 10:01:34;;;;;;;19.75;1.75;;;;;;;23.96;43.87;99011.41;7315691;19;129549;-39
2022/05/29 10:04:02;;;;;;;8.25;0.82;;;;;;;23.93;43.63;99003.84;7317319;19;130336;-42
2022/05/29 10:06:30;;;;;;;8.65;0.90;;;;;;;23.95;43.30;99003.66;7316687;19;130107;-39
2022/05/29 10:09:10;;;;;;;12.05;1.17;;;;;;;23.96;43.77;98998.28;7316701;19;128837;-40
2022/05/29 10:11:37;;;;;;;21.88;1.67;;;;;;;23.87;43.82;98986.16;7317052;19;130223;-40
2022/05/29 10:14:24;;;;;;;20.77;1.83;;;;;;;23.95;43.48;98996.63;7315846;19;130269;-40
2022/05/29 10:16:50;;;;;;;30.27;2.35;;;;;;;23.96;43.75;99008.78;7315933;19;129574;-40
2022/05/29 10:19:39;;;;;;;13.93;1.00;;;;;;;23.94;43.28;98997.63;7314906;19;128727;-41
2022/05/29 10:22:13;;;;;;;44.35;3.88;;;;;;;23.94;43.78;98995.00;7312657;19;131432;-41
2022/05/29 10:24:40;;;;;;;23.27;1.88;;;;;;;23.98;43.36;98995.50;7316673;19;129401;-44
2022/05/29 10:27:19;;;;;;;40.38;3.40;;;;;;;23.96;43.52;98994.81;7313566;19;129370;-39
2022/05/29 10:29:44;;;;;;;7.97;0.73;;;;;;;23.97;43.42;99002.53;7314856;19;129293;-38
2022/05/29 10:32:21;;;;;;;23.33;2.03;;;;;;;23.98;43.59;98985.81;7314312;19;159050;-39
2022/05/29 10:34:46;;;;;;;15.23;1.17;;;;;;;23.95;43.17;98994.00;7316976;19;130678;-38
2022/05/29 10:37:39;;;;;;;14.00;1.17;;;;;;;23.95;43.84;98988.75;7315504;19;128813;-38
2022/05/29 10:40:13;;;;;;;23.27;2.00;;;;;;;23.96;43.58;98993.03;7312883;19;130004;-38
2022/05/29 10:42:45;;;;;;;17.73;1.45;;;;;;;23.95;44.00;98986.13;7315359;19;129611;-42
2022/05/29 10:45:19;;;;;;;16.08;1.40;;;;;;;23.98;43.36;98988.44;7315931;19;130414;-42
2022/05/29 10:47:57;;;;;;;11.63;0.95;;;;;;;24.00;43.24;98989.09;7316028;19;128960;-41
2022/05/29 10:50:51;;;;;;;21.63;1.75;;;;;;;23.97;43.39;98985.94;7314323;19;129605;-38
2022/05/29 10:53:47;;;;;;;14.65;1.15;;;;;;;23.96;43.53;98977.28;7315334;19;129532;-42
2022/05/29 10:56:40;;;;;;;21.27;1.80;;;;;;;23.99;43.43;98986.63;7313994;19;129473;-41
2022/05/29 10:59:08;;;;;;;14.43;1.25;;;;;;;23.97;43.61;98976.28;7315974;19;129058;-42
2022/05/29 11:05:07;;;;;;;19.25;1.65;;;;;;;23.89;43.12;98957.94;7315601;19;129708;-38
2022/05/29 11:07:41;;;;;;;17.95;1.52;;;;;;;23.98;43.19;98964.00;7313950;19;129266;-41
2022/05/29 11:10:20;;;;;;;19.02;1.55;;;;;;;24.00;43.76;98962.84;7313301;19;129309;-38
2022/05/29 11:13:20;;;;;;;14.35;1.08;;;;;;;23.99;43.51;98960.38;7314354;19;128804;-39
2022/05/29 11:16:12;;;;;;;32.20;2.88;;;;;;;23.98;43.33;98954.31;7314693;19;129815;-42
2022/05/29 11:18:55;;;;;;;26.05;2.05;;;;;;;23.98;43.27;98954.31;7314007;19;130403;-43
2022/05/29 11:21:28;;;;;;;26.67;2.03;;;;;;;23.98;43.04;98951.69;7313389;19;129065;-40
2022/05/29 11:24:20;;;;;;;16.15;1.30;;;;;;;24.00;43.42;98949.69;7313519;19;128781;-42
2022/05/29 11:27:12;;;;;;;18.48;1.38;;;;;;;23.99;43.60;98940.19;7314416;19;130018;-42
2022/05/29 11:29:54;;;;;;;28.98;2.67;;;;;;;23.99;43.60;98939.38;7312550;19;129162;-38
2022/05/29 11:32:39;;;;;;;18.63;1.40;;;;;;;23.97;43.40;98942.13;7312886;19;153339;-41
2022/05/29 11:35:38;;;;;;;20.52;1.70;;;;;;;23.96;43.65;98931.81;7315735;19;129169;-40
2022/05/29 11:38:27;;;;;;;21.48;1.95;;;;;;;23.88;43.08;98911.63;7313056;19;130276;-42
2022/05/29 11:41:01;;;;;;;15.15;1.25;;;;;;;23.99;42.92;98929.69;7313257;19;129488;-43
2022/05/29 11:43:35;;;;;;;20.58;1.75;;;;;;;23.98;43.29;98930.66;7315072;19;129284;-37
2022/05/29 11:52:10;;;;;;;17.27;1.40;;;;;;;23.96;45.79;98898.50;7314029;19;129131;-41
2022/05/29 11:54:43;;;;;;;;;;;;;;;24.07;46.15;98911.28;7314093;19;129318;-39
2022/05/29 11:57:19;;;;;;;16.20;1.33;;;;;;;24.06;46.25;98906.19;7313266;19;129491;-42
2022/05/29 12:00:07;;;;;;;16.88;1.40;;;;;;;24.03;47.30;98903.91;7311900;19;129679;-39
2022/05/29 12:02:40;;;;;;;19.30;1.67;;;;;;;24.04;47.17;98902.91;7310360;19;129288;-40
2022/05/29 12:05:26;;;;;;;23.08;2.00;;;;;;;24.05;47.70;98901.91;7312702;19;129253;-41
2022/05/29 12:08:19;;;;;;;18.73;1.60;;;;;;;24.00;48.27;98894.56;7312819;19;128856;-42
2022/05/29 12:11:23;;;;;;;15.10;1.15;;;;;;;23.75;45.49;98890.38;7312827;19;130417;-40
2022/05/29 12:14:19;;;;;;;17.02;1.42;;;;;;;23.70;44.82;98882.19;7312066;19;130272;-40
2022/05/29 12:16:47;;;;;;;14.23;1.10;;;;;;;23.82;44.29;98893.13;7313150;19;129374;-38